createdAt,value
2023-05-23T00:01:22.811Z,15.27
2023-05-23T00:03:49.905Z,15.26
2023-05-23T00:06:21.465Z,15.28
2023-05-23T00:08:48.470Z,15.26
2023-05-23T00:11:15.816Z,15.25
2023-05-23T00:13:42.868Z,15.12
2023-05-23T00:16:10.644Z,15.26
2023-05-23T00:18:38.422Z,15.28
2023-05-23T00:21:05.137Z,15.29
2023-05-23T00:23:33.979Z,15.21
2023-05-23T00:26:00.755Z,15.19
2023-05-23T00:28:28.127Z,15.21
2023-05-23T00:30:54.970Z,15.22
2023-05-23T00:33:22.847Z,15.24
2023-05-23T00:35:49.633Z,15.16
2023-05-23T00:38:17.400Z,15.19
2023-05-23T00:40:44.112Z,15.12
2023-05-23T00:43:10.795Z,15.07
2023-05-23T00:45:37.732Z,15.09
2023-05-23T00:48:04.840Z,15.25
2023-05-23T00:50:31.802Z,15.08
2023-05-23T00:52:59.363Z,15.18
2023-05-23T00:55:26.364Z,15.09
2023-05-23T00:57:57.602Z,14.97
2023-05-23T01:00:26.132Z,15.08
2023-05-23T01:02:53.618Z,15.03
2023-05-23T01:05:22.703Z,15.03
2023-05-23T01:07:50.622Z,14.99
2023-05-23T01:10:20.110Z,15.03
2023-05-23T01:12:55.910Z,15.00
2023-05-23T01:15:26.941Z,14.92
2023-05-23T01:18:04.609Z,14.85
2023-05-23T01:20:45.378Z,14.83
2023-05-23T01:23:30.473Z,14.77
2023-05-23T01:26:19.874Z,14.92
2023-05-23T01:28:50.650Z,14.89
2023-05-23T01:31:18.084Z,14.77
2023-05-23T01:33:46.620Z,14.77
2023-05-23T01:36:15.377Z,14.73
2023-05-23T01:38:42.162Z,14.64
2023-05-23T01:41:08.992Z,14.63
2023-05-23T01:43:35.830Z,14.49
2023-05-23T01:46:03.862Z,14.61
2023-05-23T01:48:31.558Z,14.66
2023-05-23T01:50:58.701Z,14.55
2023-05-23T01:53:25.757Z,14.52
2023-05-23T01:55:53.027Z,14.41
2023-05-23T01:58:19.914Z,14.38
2023-05-23T02:00:46.744Z,14.37
2023-05-23T02:03:13.865Z,14.45
2023-05-23T02:05:40.916Z,14.48
2023-05-23T02:08:07.929Z,14.36
2023-05-23T02:10:34.709Z,14.35
2023-05-23T02:13:01.473Z,14.35
2023-05-23T02:15:28.224Z,14.35
2023-05-23T02:17:54.934Z,14.17
2023-05-23T02:20:21.766Z,14.36
2023-05-23T02:22:48.440Z,14.19
2023-05-23T02:25:16.154Z,14.46
2023-05-23T02:27:43.026Z,14.51
2023-05-23T02:30:10.069Z,14.58
2023-05-23T02:32:38.194Z,14.85
2023-05-23T02:35:06.452Z,15.26
2023-05-23T02:37:33.255Z,15.79
2023-05-23T02:40:03.628Z,15.72
2023-05-23T02:42:30.455Z,16.50
2023-05-23T02:44:57.275Z,16.88
2023-05-23T02:47:24.049Z,17.20
2023-05-23T02:49:50.967Z,17.39
2023-05-23T02:52:17.987Z,17.03
2023-05-23T02:54:44.646Z,18.04
2023-05-23T02:57:11.399Z,18.63
2023-05-23T02:59:38.310Z,19.06
2023-05-23T03:02:05.229Z,18.32
2023-05-23T03:04:32.025Z,18.80
2023-05-23T03:06:59.833Z,18.79
2023-05-23T03:09:27.087Z,18.59
2023-05-23T03:11:53.864Z,18.53
2023-05-23T03:14:20.648Z,18.50
2023-05-23T03:16:47.413Z,18.33
2023-05-23T03:19:14.224Z,18.70
2023-05-23T03:21:41.295Z,18.89
2023-05-23T03:24:08.309Z,17.77
2023-05-23T03:26:35.021Z,18.37
2023-05-23T03:29:01.978Z,18.28
2023-05-23T03:31:28.949Z,18.17
2023-05-23T03:33:55.919Z,18.83
2023-05-23T03:36:26.205Z,19.32
2023-05-23T03:38:53.399Z,19.94
2023-05-23T03:41:20.342Z,19.60
2023-05-23T03:43:47.373Z,18.56
2023-05-23T03:46:14.343Z,18.30
2023-05-23T03:48:41.501Z,18.68
2023-05-23T03:51:08.320Z,18.48
2023-05-23T03:53:36.649Z,18.67
2023-05-23T03:56:03.776Z,18.09
2023-05-23T03:58:30.550Z,18.39
2023-05-23T04:00:59.094Z,18.68
2023-05-23T04:03:27.621Z,19.03
2023-05-23T04:05:54.469Z,19.14
2023-05-23T04:08:22.278Z,19.47
2023-05-23T04:10:49.298Z,19.04
2023-05-23T04:13:16.100Z,19.23
2023-05-23T04:15:43.228Z,19.59
2023-05-23T04:18:10.275Z,19.18
2023-05-23T04:20:37.351Z,19.20
2023-05-23T04:23:04.237Z,19.33
2023-05-23T04:25:31.412Z,19.53
2023-05-23T04:27:58.091Z,19.35
2023-05-23T04:30:25.182Z,19.78
2023-05-23T04:32:52.346Z,19.19
2023-05-23T04:35:19.466Z,20.79
2023-05-23T04:37:47.404Z,20.27
2023-05-23T04:40:14.705Z,20.50
2023-05-23T04:42:44.750Z,20.34
2023-05-23T04:45:11.805Z,20.04
2023-05-23T04:47:38.666Z,19.69
2023-05-23T04:50:06.103Z,19.40
2023-05-23T04:52:34.397Z,19.15
2023-05-23T04:55:01.787Z,19.51
2023-05-23T04:57:29.080Z,19.20
2023-05-23T04:59:57.043Z,18.48
2023-05-23T05:02:24.257Z,18.86
2023-05-23T05:04:51.730Z,18.44
2023-05-23T05:07:18.973Z,18.40
2023-05-23T05:09:46.302Z,18.52
2023-05-23T05:12:13.098Z,18.59
2023-05-23T05:14:40.227Z,19.08
2023-05-23T05:17:07.219Z,17.81
2023-05-23T05:19:34.384Z,19.03
2023-05-23T05:22:02.103Z,19.50
2023-05-23T05:24:29.121Z,19.24
2023-05-23T05:26:57.469Z,19.45
2023-05-23T05:29:25.668Z,19.08
2023-05-23T05:31:53.691Z,19.46
2023-05-23T05:34:21.056Z,19.83
2023-05-23T05:36:48.410Z,20.03
2023-05-23T05:39:15.860Z,19.97
2023-05-23T05:41:42.697Z,19.94
2023-05-23T05:44:10.335Z,19.83
2023-05-23T05:46:37.405Z,19.02
2023-05-23T05:49:04.206Z,19.33
2023-05-23T05:51:31.722Z,19.05
2023-05-23T05:53:58.668Z,18.95
2023-05-23T05:56:26.395Z,18.12
2023-05-23T05:58:53.170Z,18.03
2023-05-23T06:01:20.186Z,17.79
2023-05-23T06:03:47.159Z,17.78
2023-05-23T06:06:14.461Z,17.82
2023-05-23T06:08:42.390Z,18.11
2023-05-23T06:11:09.070Z,18.07
2023-05-23T06:13:36.023Z,18.20
2023-05-23T06:16:02.876Z,18.53
2023-05-23T06:18:29.562Z,18.41
2023-05-23T06:20:56.500Z,19.29
2023-05-23T06:23:23.181Z,19.38
2023-05-23T06:25:51.295Z,19.61
2023-05-23T06:28:18.109Z,18.91
2023-05-23T06:30:44.792Z,18.49
2023-05-23T06:33:12.582Z,18.21
2023-05-23T06:35:39.907Z,18.29
2023-05-23T06:38:06.606Z,18.46
2023-05-23T06:40:33.369Z,18.72
2023-05-23T06:43:00.315Z,19.01
2023-05-23T06:45:26.975Z,19.34
2023-05-23T06:47:53.814Z,19.01
2023-05-23T06:50:20.582Z,19.44
2023-05-23T06:52:47.333Z,19.87
2023-05-23T06:55:18.423Z,20.04
2023-05-23T06:57:45.902Z,20.47
2023-05-23T07:00:14.073Z,20.42
2023-05-23T07:02:40.944Z,20.56
2023-05-23T07:05:08.156Z,20.60
2023-05-23T07:07:34.929Z,20.40
2023-05-23T07:10:01.699Z,20.25
2023-05-23T07:12:28.511Z,20.21
2023-05-23T07:14:55.255Z,20.06
2023-05-23T07:17:22.661Z,20.13
2023-05-23T07:19:49.583Z,19.85
2023-05-23T07:22:16.208Z,20.26
2023-05-23T07:24:42.848Z,20.30
2023-05-23T07:27:09.750Z,19.97
2023-05-23T07:29:37.022Z,19.75
2023-05-23T07:32:03.785Z,19.29
2023-05-23T07:34:30.861Z,19.75
2023-05-23T07:36:57.576Z,20.09
2023-05-23T07:39:24.639Z,20.22
2023-05-23T07:41:51.684Z,19.54
2023-05-23T07:44:20.628Z,20.15
2023-05-23T07:46:48.424Z,20.45
2023-05-23T07:49:15.250Z,20.65
2023-05-23T07:51:41.973Z,20.16
2023-05-23T07:54:08.778Z,20.19
2023-05-23T07:56:35.541Z,20.43
2023-05-23T07:59:02.438Z,20.58
2023-05-23T08:01:29.620Z,19.75
2023-05-23T08:03:56.498Z,19.54
2023-05-23T08:06:23.427Z,19.60
2023-05-23T08:08:51.313Z,19.50
2023-05-23T08:11:18.107Z,19.82
2023-05-23T08:13:44.761Z,19.91
2023-05-23T08:16:11.460Z,20.18
2023-05-23T08:18:38.583Z,20.53
2023-05-23T08:21:05.293Z,20.69
2023-05-23T08:23:32.323Z,20.26
2023-05-23T08:25:59.059Z,20.17
2023-05-23T08:28:25.835Z,20.65
2023-05-23T08:30:52.652Z,20.65
2023-05-23T08:33:19.364Z,20.08
2023-05-23T08:35:46.861Z,20.33
2023-05-23T08:38:13.733Z,20.35
2023-05-23T08:40:42.729Z,20.29
2023-05-23T08:43:10.637Z,20.54
2023-05-23T08:45:37.789Z,20.20
2023-05-23T08:48:09.455Z,19.92
2023-05-23T08:50:38.185Z,20.02
2023-05-23T08:53:05.006Z,19.93
2023-05-23T08:55:31.777Z,20.34
2023-05-23T08:58:03.750Z,20.56
2023-05-23T09:00:30.683Z,20.47
2023-05-23T09:02:57.831Z,20.40
2023-05-23T09:05:26.671Z,20.71
2023-05-23T09:07:54.022Z,20.83
2023-05-23T09:10:21.261Z,21.20
2023-05-23T09:12:48.336Z,21.21
2023-05-23T09:15:15.391Z,21.50
2023-05-23T09:17:42.148Z,21.50
2023-05-23T09:20:14.384Z,21.31
2023-05-23T09:22:41.504Z,21.54
2023-05-23T09:25:08.641Z,21.60
2023-05-23T09:27:36.214Z,21.41
2023-05-23T09:30:11.063Z,21.39
2023-05-23T09:32:37.623Z,21.77
2023-05-23T09:35:06.379Z,21.72
2023-05-23T09:37:35.681Z,21.90
2023-05-23T09:40:07.324Z,21.88
2023-05-23T09:42:34.419Z,22.26
2023-05-23T09:45:04.113Z,22.11
2023-05-23T09:47:31.991Z,21.68
2023-05-23T09:49:59.032Z,21.62
2023-05-23T09:52:26.193Z,22.34
2023-05-23T09:54:54.173Z,22.49
2023-05-23T09:57:23.346Z,22.86
2023-05-23T09:59:56.559Z,22.76
2023-05-23T10:02:34.903Z,22.43
2023-05-23T10:05:02.135Z,22.15
2023-05-23T10:07:28.930Z,22.12
2023-05-23T10:10:01.461Z,22.55
2023-05-23T10:12:55.275Z,21.95
2023-05-23T10:15:24.039Z,22.10
2023-05-23T10:17:57.059Z,22.75
2023-05-23T10:20:26.253Z,22.54
2023-05-23T10:22:53.486Z,22.76
2023-05-23T10:25:20.457Z,23.04
2023-05-23T10:27:50.308Z,21.99
2023-05-23T10:30:18.284Z,21.94
2023-05-23T10:32:45.572Z,22.49
2023-05-23T10:35:25.735Z,21.98
2023-05-23T10:38:04.956Z,22.15
2023-05-23T10:40:49.742Z,22.53
2023-05-23T10:43:37.265Z,22.30
2023-05-23T10:46:04.554Z,22.76
2023-05-23T10:48:31.439Z,22.65
2023-05-23T10:51:12.385Z,22.60
2023-05-23T10:53:46.444Z,22.32
2023-05-23T10:56:24.278Z,22.33
2023-05-23T10:58:56.053Z,22.90
2023-05-23T11:01:23.991Z,22.97
2023-05-23T11:03:54.549Z,23.55
2023-05-23T11:06:38.845Z,23.41
2023-05-23T11:09:19.640Z,22.39
2023-05-23T11:11:59.193Z,22.53
2023-05-23T11:14:40.782Z,22.98
2023-05-23T11:17:13.582Z,23.14
2023-05-23T11:19:40.762Z,22.97
2023-05-23T11:22:10.502Z,22.91
2023-05-23T11:24:56.906Z,23.10
2023-05-23T11:27:27.878Z,23.46
2023-05-23T11:30:14.685Z,23.63
2023-05-23T11:32:42.650Z,22.97
2023-05-23T11:35:12.441Z,23.55
2023-05-23T11:37:39.984Z,24.15
2023-05-23T11:40:27.184Z,24.42
2023-05-23T11:42:55.145Z,23.98
2023-05-23T11:45:25.175Z,24.29
2023-05-23T11:47:52.153Z,23.53
2023-05-23T11:50:20.896Z,23.10
2023-05-23T11:52:51.881Z,23.42
2023-05-23T11:55:22.869Z,23.31
2023-05-23T11:57:50.565Z,23.43
2023-05-23T12:00:23.227Z,23.53
2023-05-23T12:02:50.354Z,23.81
2023-05-23T12:05:17.494Z,24.09
2023-05-23T12:07:51.907Z,23.04
2023-05-23T12:10:21.832Z,22.77
2023-05-23T12:12:48.882Z,22.59
2023-05-23T12:15:16.124Z,22.57
2023-05-23T12:17:46.687Z,22.79
2023-05-23T12:20:13.875Z,22.89
2023-05-23T12:22:42.221Z,23.24
2023-05-23T12:25:10.855Z,23.12
2023-05-23T12:27:40.484Z,23.79
2023-05-23T12:30:11.199Z,23.70
2023-05-23T12:32:42.610Z,23.89
2023-05-23T12:35:12.270Z,23.88
2023-05-23T12:37:43.907Z,23.96
2023-05-23T12:40:14.600Z,23.64
2023-05-23T12:42:45.851Z,23.49
2023-05-23T12:45:15.332Z,23.43
2023-05-23T12:47:42.044Z,23.73
2023-05-23T12:50:10.060Z,23.48
2023-05-23T12:52:37.419Z,22.93
2023-05-23T12:55:04.571Z,23.06
2023-05-23T12:57:32.144Z,23.15
2023-05-23T12:59:59.221Z,23.26
2023-05-23T13:02:26.256Z,23.27
2023-05-23T13:04:52.955Z,22.98
2023-05-23T13:07:19.714Z,22.82
2023-05-23T13:09:46.398Z,22.76
2023-05-23T13:12:13.142Z,22.92
2023-05-23T13:14:39.856Z,23.26
2023-05-23T13:17:07.116Z,23.74
2023-05-23T13:19:34.093Z,23.80
2023-05-23T13:22:01.482Z,23.55
2023-05-23T13:24:28.185Z,23.75
2023-05-23T13:26:54.925Z,23.90
2023-05-23T13:29:21.675Z,24.23
2023-05-23T13:31:48.579Z,23.65
2023-05-23T13:34:15.585Z,24.21
2023-05-23T13:36:42.458Z,23.52
2023-05-23T13:39:09.198Z,23.38
2023-05-23T13:41:35.902Z,23.43
2023-05-23T13:44:02.715Z,23.54
2023-05-23T13:46:29.591Z,23.51
2023-05-23T13:48:56.348Z,23.45
2023-05-23T13:51:23.183Z,23.68
2023-05-23T13:53:49.826Z,24.06
2023-05-23T13:56:17.077Z,23.78
2023-05-23T13:58:46.744Z,23.56
2023-05-23T14:01:13.731Z,23.74
2023-05-23T14:03:40.484Z,24.20
2023-05-23T14:06:07.951Z,23.54
2023-05-23T14:08:35.249Z,23.69
2023-05-23T14:11:01.901Z,24.14
2023-05-23T14:13:28.554Z,23.84
2023-05-23T14:15:55.358Z,24.33
2023-05-23T14:18:22.091Z,24.78
2023-05-23T14:20:49.052Z,24.91
2023-05-23T14:23:15.900Z,24.81
2023-05-23T14:25:42.998Z,24.04
2023-05-23T14:28:09.852Z,23.75
2023-05-23T14:30:36.612Z,23.55
2023-05-23T14:33:03.343Z,23.85
2023-05-23T14:35:30.236Z,23.91
2023-05-23T14:37:56.955Z,23.56
2023-05-23T14:40:23.697Z,23.40
2023-05-23T14:42:50.430Z,23.30
2023-05-23T14:45:18.873Z,23.39
2023-05-23T14:47:46.194Z,23.42
2023-05-23T14:50:13.229Z,23.68
2023-05-23T14:52:39.945Z,24.05
2023-05-23T14:55:07.218Z,24.36
2023-05-23T14:57:34.297Z,24.76
2023-05-23T15:00:03.296Z,25.45
2023-05-23T15:02:30.153Z,25.91
2023-05-23T15:04:57.354Z,25.47
2023-05-23T15:07:24.010Z,25.72
2023-05-23T15:09:50.790Z,24.87
2023-05-23T15:12:17.679Z,24.60
2023-05-23T15:14:44.903Z,23.76
2023-05-23T15:17:13.245Z,23.91
2023-05-23T15:19:43.096Z,24.27
2023-05-23T15:22:18.792Z,24.31
2023-05-23T15:24:59.540Z,24.36
2023-05-23T15:27:26.336Z,24.75
2023-05-23T15:29:53.041Z,25.26
2023-05-23T15:32:19.824Z,25.16
2023-05-23T15:34:46.620Z,24.72
2023-05-23T15:37:13.372Z,25.43
2023-05-23T15:39:40.114Z,25.34
2023-05-23T15:42:07.006Z,24.72
2023-05-23T15:44:33.784Z,24.83
2023-05-23T15:47:00.507Z,24.54
2023-05-23T15:49:27.544Z,24.58
2023-05-23T15:51:55.427Z,25.04
2023-05-23T15:54:22.503Z,25.09
2023-05-23T15:56:49.230Z,24.76
2023-05-23T15:59:16.051Z,25.24
2023-05-23T16:01:42.828Z,25.55
2023-05-23T16:04:09.876Z,25.83
2023-05-23T16:06:36.885Z,25.96
2023-05-23T16:09:03.813Z,25.04
2023-05-23T16:11:30.962Z,25.14
2023-05-23T16:13:57.662Z,25.12
2023-05-23T16:16:24.370Z,25.45
2023-05-23T16:18:51.189Z,24.92
2023-05-23T16:21:20.750Z,24.58
2023-05-23T16:23:48.934Z,24.28
2023-05-23T16:26:16.682Z,23.86
2023-05-23T16:28:43.812Z,24.31
2023-05-23T16:31:15.088Z,24.91
2023-05-23T16:33:42.482Z,25.17
2023-05-23T16:36:09.440Z,24.53
2023-05-23T16:38:36.501Z,24.32
2023-05-23T16:41:06.401Z,24.28
2023-05-23T16:43:34.975Z,23.89
2023-05-23T16:46:01.748Z,23.43
2023-05-23T16:50:56.748Z,22.63
2023-05-23T16:53:23.640Z,22.30
2023-05-23T16:55:50.657Z,22.24
2023-05-23T16:58:20.036Z,22.04
2023-05-23T17:00:47.949Z,22.03
2023-05-23T17:03:14.844Z,21.91
2023-05-23T17:05:42.061Z,21.89
2023-05-23T17:08:09.195Z,21.93
2023-05-23T17:10:36.999Z,21.74
2023-05-23T17:13:03.802Z,21.84
2023-05-23T17:15:30.801Z,22.08
2023-05-23T17:17:57.538Z,22.18
2023-05-23T17:20:26.883Z,22.28
2023-05-23T17:22:53.876Z,22.15
2023-05-23T17:25:20.937Z,21.95
2023-05-23T17:27:47.707Z,21.96
2023-05-23T17:30:18.424Z,21.76
2023-05-23T17:32:50.299Z,21.95
2023-05-23T17:35:17.364Z,21.97
2023-05-23T17:37:45.271Z,21.90
2023-05-23T17:40:13.208Z,21.85
2023-05-23T17:42:40.795Z,21.74
2023-05-23T17:45:09.466Z,21.73
2023-05-23T17:47:36.297Z,21.58
2023-05-23T17:50:04.800Z,21.52
2023-05-23T17:52:31.864Z,21.56
2023-05-23T17:54:58.727Z,21.37
2023-05-23T17:57:25.711Z,21.22
2023-05-23T17:59:52.421Z,21.15
2023-05-23T18:02:19.563Z,20.96
2023-05-23T18:04:46.783Z,20.87
2023-05-23T18:07:13.895Z,20.68
2023-05-23T18:09:41.134Z,20.59
2023-05-23T18:12:07.914Z,20.58
2023-05-23T18:14:34.739Z,20.44
2023-05-23T18:17:01.603Z,20.38
2023-05-23T18:19:28.360Z,20.43
2023-05-23T18:21:55.262Z,20.34
2023-05-23T18:24:22.150Z,20.19
2023-05-23T18:26:53.733Z,20.16
2023-05-23T18:29:21.242Z,20.12
2023-05-23T18:31:48.189Z,20.10
2023-05-23T18:34:14.924Z,20.02
2023-05-23T18:36:41.678Z,19.87
2023-05-23T18:39:08.638Z,19.77
2023-05-23T18:41:35.483Z,19.58
2023-05-23T18:44:02.341Z,19.59
2023-05-23T18:46:31.440Z,19.38
2023-05-23T18:48:58.512Z,19.24
2023-05-23T18:51:26.385Z,19.31
2023-05-23T18:53:53.097Z,19.53
2023-05-23T18:56:20.399Z,19.57
2023-05-23T18:58:47.414Z,19.49
2023-05-23T19:01:14.361Z,19.43
2023-05-23T19:03:41.629Z,19.34
2023-05-23T19:06:08.486Z,19.26
2023-05-23T19:08:35.455Z,19.09
2023-05-23T19:11:02.388Z,19.00
2023-05-23T19:13:29.318Z,18.88
2023-05-23T19:15:56.239Z,18.70
2023-05-23T19:18:23.333Z,18.31
2023-05-23T19:20:51.822Z,18.55
2023-05-23T19:23:19.376Z,18.52
2023-05-23T19:25:46.622Z,18.51
2023-05-23T19:28:15.398Z,18.59
2023-05-23T19:30:42.441Z,18.55
2023-05-23T19:33:10.343Z,18.26
2023-05-23T19:35:37.485Z,18.33
2023-05-23T19:38:04.501Z,18.55
2023-05-23T19:40:31.115Z,18.62
2023-05-23T19:42:57.928Z,18.63
2023-05-23T19:45:24.724Z,18.76
2023-05-23T19:47:51.975Z,18.86
2023-05-23T19:50:19.104Z,18.85
2023-05-23T19:52:45.955Z,18.77
2023-05-23T19:55:12.643Z,18.70
2023-05-23T19:57:39.340Z,18.66
2023-05-23T20:00:06.657Z,18.68
2023-05-23T20:02:33.563Z,18.60
2023-05-23T20:05:00.457Z,18.64
2023-05-23T20:07:27.193Z,18.55
2023-05-23T20:09:55.601Z,18.46
2023-05-23T20:12:22.313Z,18.50
2023-05-23T20:14:49.125Z,18.53
2023-05-23T20:17:15.925Z,18.38
2023-05-23T20:19:42.838Z,18.36
2023-05-23T20:22:09.534Z,18.26
2023-05-23T20:24:36.343Z,18.35
2023-05-23T20:27:03.177Z,18.35
2023-05-23T20:29:30.039Z,18.28
2023-05-23T20:31:56.732Z,18.05
2023-05-23T20:34:23.455Z,18.02
2023-05-23T20:36:50.482Z,17.80
2023-05-23T20:39:17.483Z,17.78
2023-05-23T20:41:45.707Z,17.58
2023-05-23T20:44:14.300Z,17.63
2023-05-23T20:46:41.086Z,17.71
2023-05-23T20:49:07.839Z,17.96
2023-05-23T20:51:35.552Z,18.37
2023-05-23T20:54:03.368Z,18.63
2023-05-23T20:56:31.173Z,18.88
2023-05-23T20:59:00.404Z,18.99
2023-05-23T21:01:27.711Z,18.96
2023-05-23T21:03:55.335Z,18.83
2023-05-23T21:06:22.585Z,18.75
2023-05-23T21:08:49.310Z,18.66
2023-05-23T21:11:16.033Z,18.43
2023-05-23T21:13:43.099Z,18.31
2023-05-23T21:16:12.562Z,18.15
2023-05-23T21:18:39.477Z,18.22
2023-05-23T21:21:06.445Z,18.18
2023-05-23T21:23:33.220Z,18.06
2023-05-23T21:25:59.875Z,18.10
2023-05-23T21:28:26.693Z,18.15
2023-05-23T21:30:53.907Z,18.10
2023-05-23T21:33:21.183Z,18.25
2023-05-23T21:35:49.825Z,18.19
2023-05-23T21:38:17.057Z,18.26
2023-05-23T21:40:44.104Z,18.26
2023-05-23T21:43:11.156Z,18.41
2023-05-23T21:45:37.802Z,18.48
2023-05-23T21:48:04.687Z,18.42
2023-05-23T21:50:31.555Z,18.29
2023-05-23T21:52:58.327Z,18.19
2023-05-23T21:55:25.143Z,18.15
2023-05-23T21:57:52.188Z,18.15
2023-05-23T22:00:20.114Z,18.05
2023-05-23T22:02:47.495Z,18.05
2023-05-23T22:05:14.387Z,18.02
2023-05-23T22:07:41.179Z,18.01
2023-05-23T22:10:08.537Z,17.77
2023-05-23T22:12:35.479Z,17.84
2023-05-23T22:15:02.201Z,17.61
2023-05-23T22:17:29.678Z,17.41
2023-05-23T22:19:58.147Z,17.55
2023-05-23T22:22:24.942Z,17.66
2023-05-23T22:24:51.954Z,17.60
2023-05-23T22:27:18.768Z,17.59
2023-05-23T22:29:45.662Z,17.61
2023-05-23T22:32:12.468Z,17.53
2023-05-23T22:34:39.292Z,17.55
2023-05-23T22:37:06.099Z,17.51
2023-05-23T22:39:32.785Z,17.54
2023-05-23T22:41:59.818Z,17.59
2023-05-23T22:44:26.880Z,17.65
2023-05-23T22:46:53.707Z,17.63
2023-05-23T22:49:21.717Z,17.61
2023-05-23T22:51:48.880Z,17.50
2023-05-23T22:54:15.590Z,17.40
2023-05-23T22:56:42.328Z,17.38
2023-05-23T22:59:09.231Z,17.34
2023-05-23T23:01:36.269Z,17.26
2023-05-23T23:04:02.964Z,17.23
2023-05-23T23:06:30.046Z,17.26
2023-05-23T23:08:56.723Z,17.21
2023-05-23T23:11:24.743Z,17.11
2023-05-23T23:13:51.500Z,17.10
2023-05-23T23:16:19.490Z,17.00
2023-05-23T23:18:47.284Z,16.93
2023-05-23T23:21:14.688Z,16.95
2023-05-23T23:23:42.649Z,16.95
2023-05-23T23:26:09.381Z,16.96
2023-05-23T23:28:36.044Z,16.91
2023-05-23T23:31:02.818Z,16.92
2023-05-23T23:33:29.589Z,16.89
2023-05-23T23:35:57.739Z,16.85
2023-05-23T23:38:24.450Z,16.74
2023-05-23T23:40:51.423Z,16.65
2023-05-23T23:43:18.218Z,16.53
2023-05-23T23:45:45.471Z,16.60
2023-05-23T23:48:14.021Z,16.62
2023-05-23T23:50:41.033Z,16.54
2023-05-23T23:53:08.047Z,16.39
2023-05-23T23:55:34.695Z,16.46
2023-05-23T23:58:01.502Z,16.63
